Rome Ciampino, Italy

6:00 AM CEST on September 18, 2014 (GMT +0200)
Ciampino | Change Station
CLOSE
Current Station
Personal Weather Station
Location: Ciampino, LAZIO
Elevation: 348 ft
Nearby Weather Stations

Elev 348 ft 41.81 °N, 12.60 °E | Updated 14 minutes ago

Partly Cloudy
Partly Cloudy
66.6 °F
Feels Like 66.6 °F
N
0.0
Wind Variable Wind from North
Gusts 0.7 mph

Today
High -- | Low -- °F
--% Chance of Precip.
Yesterday
High -- | Low -- °F
Precip. -- in
6:52 AM 7:14 PM
Waning Crescent, 30% visible
Pressure 29.95 in
Visibility 6.2 miles
Clouds Few 7000 ft
Dew Point 64 °F
Humidity 90%
Rainfall 0.00 in
Snow Depth Not available.
UV 0 out of 12
Pollen Not available.
Air Quality Not available.
Flu Activity Not available.
METAR LIRA 180345Z 00000KT 9999 FEW070 19/18 Q1014

More Conditions Fewer Conditions

Pressure 29.95 in
Visibility 6.2 miles
Clouds Few 7000 ft
Dew Point 64 °F
Humidity 90%
Rainfall 0.00 in
Snow Depth Not available.
UV 0 out of 12
Pollen Not available.
Air Quality Not available.
Flu Activity Not available.
METAR LIRA 180345Z 00000KT 9999 FEW070 19/18 Q1014

More Conditions Fewer Conditions

10-Day Weather Forecast

Almanac

Astronomy

Sep. 18, 2014 Rise Set
Actual Time 6:52 AM CEST 7:14 PM CEST
Civil Twilight 6:24 AM CEST 7:42 PM CEST
Nautical Twilight 5:52 AM CEST 8:15 PM CEST
Astronomical Twilight 5:18 AM CEST 8:48 PM CEST
Moon 1:26 AM CEST 3:57 PM CEST
Length of Visible Light 13h 17m
Length of Day
12h 21m
Tomorrow will be 2m 47s shorter.
Waning Crescent, 30% of the Moon is Illuminated
Today
Waning Crescent
Sep 24
New
Oct 1
First Quarter
Oct 8
Full
Oct 15
Last Quarter

Yesterday's Extremes

Country Highs Country Lows

Community

WunderPhotos

Upload Photos

1,754,291 photos uploaded!

Nearby

Snow Depth

Not available.

Earthquake Activity

City Distance Mag. Time & Date
No recent earthquake activity has been reported nearby.
Minimum magnitude displayed is 2.5.

Coastal Water Temperatures

Place Temperature
No Stations Reporting

Nearby Weather Stations